Time;durP1;ratioP1;P1;durP2;ratioP2;P2;SDS_P1;SDS_P2;PMS_P1;PMS_P2;Temp;Humidity;BMP_temperature;BMP_pressure;BME280_temperature;BME280_humidity;BME280_pressure;Samples;Min_cycle;Max_cycle;Signal;HPM_P1;HPM_P2
2022/05/21 00:02:25;;;;;;;7.43;6.10;;;12.90;99.90;;;;;;5096661;28;20228;-76
2022/05/21 00:04:50;;;;;;;6.80;6.00;;;12.90;99.90;;;;;;5096218;28;20198;-76
2022/05/21 00:07:16;;;;;;;10.47;6.17;;;12.90;99.90;;;;;;5096389;28;20175;-76
2022/05/21 00:09:41;;;;;;;10.00;5.80;;;12.90;99.90;;;;;;5095063;28;20170;-77
2022/05/21 00:12:08;;;;;;;7.13;5.53;;;12.80;99.90;;;;;;5094553;28;20194;-77
2022/05/21 00:14:36;;;;;;;5.33;4.33;;;12.80;99.90;;;;;;5096222;28;20170;-76
2022/05/21 00:17:03;;;;;;;6.20;4.50;;;12.70;99.90;;;;;;5094670;28;20220;-76
2022/05/21 00:19:28;;;;;;;9.73;5.10;;;12.70;99.90;;;;;;5096150;28;20174;-76
2022/05/21 00:21:54;;;;;;;6.93;4.83;;;12.70;99.90;;;;;;5095946;28;20752;-76
2022/05/21 00:24:20;;;;;;;6.63;5.43;;;12.60;99.90;;;;;;5095920;28;20171;-77
2022/05/21 00:26:45;;;;;;;7.17;5.20;;;12.60;99.90;;;;;;5094562;28;20178;-76
2022/05/21 00:29:11;;;;;;;9.97;5.80;;;12.60;99.90;;;;;;5095094;28;20251;-76
2022/05/21 00:31:36;;;;;;;8.90;6.93;;;12.50;99.90;;;;;;5096110;28;20174;-76
2022/05/21 00:34:02;;;;;;;7.60;6.03;;;12.50;99.90;;;;;;5095490;28;20285;-76
2022/05/21 00:36:29;;;;;;;8.53;6.83;;;12.50;99.90;;;;;;5096183;28;20185;-77
2022/05/21 00:38:55;;;;;;;8.40;5.90;;;12.40;99.90;;;;;;5095844;28;20540;-76
2022/05/21 00:41:21;;;;;;;8.37;6.93;;;12.40;99.90;;;;;;5094181;28;20202;-76
2022/05/21 00:43:53;;;;;;;8.90;7.20;;;12.40;99.90;;;;;;5094463;28;20210;-77
2022/05/21 00:46:23;;;;;;;12.33;6.67;;;12.40;99.90;;;;;;5096740;28;20200;-77
2022/05/21 00:48:56;;;;;;;6.60;5.90;;;12.40;99.90;;;;;;5097585;28;20181;-77
2022/05/21 00:51:26;;;;;;;7.30;6.27;;;12.40;99.90;;;;;;5099084;28;20166;-77
2022/05/21 00:53:55;;;;;;;10.17;7.10;;;12.40;99.90;;;;;;5095613;28;20277;-76
2022/05/21 00:56:23;;;;;;;7.47;5.90;;;12.30;99.90;;;;;;5095217;28;20254;-76
2022/05/21 01:01:37;;;;;;;7.27;6.00;;;12.30;99.90;;;;;;5095332;28;20197;-76
2022/05/21 01:04:03;;;;;;;7.50;5.50;;;12.40;99.90;;;;;;5095147;28;20214;-76
2022/05/21 01:06:29;;;;;;;7.20;5.53;;;12.30;99.90;;;;;;5093684;28;20216;-76
2022/05/21 01:08:55;;;;;;;7.13;5.53;;;12.40;99.90;;;;;;5095181;28;20190;-76
2022/05/21 01:11:21;;;;;;;6.13;5.50;;;12.40;99.90;;;;;;5093609;28;20674;-76
2022/05/21 01:13:49;;;;;;;5.73;5.13;;;12.30;99.90;;;;;;5094990;28;20202;-76
2022/05/21 01:16:16;;;;;;;7.63;5.57;;;12.30;99.90;;;;;;5094927;28;20171;-76
2022/05/21 01:18:41;;;;;;;7.83;5.17;;;12.30;99.90;;;;;;5093510;28;20667;-77
2022/05/21 01:21:07;;;;;;;7.97;4.90;;;12.30;99.90;;;;;;5093462;28;20198;-76
2022/05/21 01:23:33;;;;;;;7.73;5.17;;;12.30;99.90;;;;;;5094831;28;20243;-76
2022/05/21 01:26:01;;;;;;;5.70;5.10;;;12.30;99.90;;;;;;5095012;28;20181;-76
2022/05/21 01:28:31;;;;;;;5.40;4.53;;;12.30;99.90;;;;;;5094016;28;20616;-76
2022/05/21 01:31:00;;;;;;;7.23;4.97;;;12.30;99.90;;;;;;5093343;28;20182;-76
2022/05/21 01:33:29;;;;;;;5.50;4.40;;;12.30;99.90;;;;;;5093558;28;20198;-77
2022/05/21 01:35:57;;;;;;;6.27;5.07;;;12.30;99.90;;;;;;5094486;28;20260;-76
2022/05/21 01:38:23;;;;;;;4.87;4.20;;;12.30;99.90;;;;;;5093260;28;20736;-77
2022/05/21 01:40:49;;;;;;;8.23;5.00;;;12.30;99.90;;;;;;5093693;28;20240;-76
2022/05/21 01:45:59;;;;;;;5.37;3.43;;;12.40;99.90;;;;;;5095446;28;20662;-77
2022/05/21 01:48:28;;;;;;;5.83;3.70;;;12.40;99.90;;;;;;5094522;28;20249;-77
2022/05/21 01:50:55;;;;;;;7.33;4.30;;;12.40;99.90;;;;;;5094796;28;20712;-77
2022/05/21 01:53:22;;;;;;;5.70;3.73;;;12.40;99.90;;;;;;5094111;28;20206;-76
2022/05/21 01:55:48;;;;;;;7.73;3.40;;;12.40;99.90;;;;;;5092922;28;20178;-76
2022/05/21 01:58:14;;;;;;;4.70;3.47;;;12.40;99.90;;;;;;5094123;28;20223;-76
2022/05/21 02:00:41;;;;;;;4.40;3.30;;;12.40;99.90;;;;;;5092692;28;20621;-76
2022/05/21 02:03:08;;;;;;;5.80;3.33;;;12.40;99.90;;;;;;5093852;28;20665;-77
2022/05/21 02:05:34;;;;;;;7.07;3.00;;;12.30;99.90;;;;;;5092600;28;20552;-77
2022/05/21 02:08:00;;;;;;;4.90;3.07;;;12.40;99.90;;;;;;5092505;28;20232;-77
2022/05/21 02:10:26;;;;;;;5.90;3.00;;;12.40;99.90;;;;;;5099603;28;20162;-77
2022/05/21 02:12:51;;;;;;;9.47;3.10;;;12.40;99.90;;;;;;5094217;28;20343;-77
2022/05/21 02:15:17;;;;;;;5.10;2.67;;;12.30;99.90;;;;;;5093998;28;20259;-77
2022/05/21 02:17:42;;;;;;;5.77;2.87;;;12.30;99.90;;;;;;5093772;28;20624;-77
2022/05/21 02:20:08;;;;;;;5.53;2.40;;;12.30;99.90;;;;;;5093808;28;20285;-77
2022/05/21 02:22:36;;;;;;;10.20;2.93;;;12.30;99.90;;;;;;5094328;28;20226;-77
2022/05/21 02:25:06;;;;;;;4.27;2.13;;;12.30;99.90;;;;;;5093031;28;20174;-77
2022/05/21 02:27:32;;;;;;;6.47;2.57;;;12.30;99.90;;;;;;5095602;28;20173;-77
2022/05/21 02:29:57;;;;;;;5.77;2.40;;;12.30;99.90;;;;;;5093353;28;20210;-77
2022/05/21 02:32:23;;;;;;;6.60;3.03;;;12.30;99.90;;;;;;5092518;28;20206;-77
2022/05/21 02:34:49;;;;;;;4.43;2.53;;;12.30;99.90;;;;;;5094407;28;20182;-76
2022/05/21 02:39:59;;;;;;;6.17;2.80;;;12.40;99.90;;;;;;5094376;28;20212;-77
2022/05/21 02:45:11;;;;;;;4.87;3.03;;;12.40;99.90;;;;;;5094131;28;20713;-77
2022/05/21 02:47:37;;;;;;;6.73;2.47;;;12.40;99.90;;;;;;5095305;28;20178;-77
2022/05/21 02:50:04;;;;;;;5.97;2.53;;;12.50;99.90;;;;;;5092594;28;20557;-77
2022/05/21 02:52:30;;;;;;;6.57;3.10;;;12.50;99.90;;;;;;5093489;28;20194;-77
2022/05/21 02:54:57;;;;;;;7.83;2.97;;;12.50;99.90;;;;;;5093607;28;20220;-77
2022/05/21 02:57:23;;;;;;;6.97;3.23;;;12.50;99.90;;;;;;5093470;28;20253;-77
2022/05/21 02:59:50;;;;;;;5.90;3.00;;;12.50;99.90;;;;;;5093436;28;20201;-77
2022/05/21 03:02:15;;;;;;;7.43;3.30;;;12.50;99.90;;;;;;5093719;28;20569;-77
2022/05/21 03:04:41;;;;;;;8.10;3.47;;;12.50;99.90;;;;;;5093530;28;20170;-77
2022/05/21 03:07:06;;;;;;;10.60;3.43;;;12.50;99.90;;;;;;5093321;28;20178;-77
2022/05/21 03:12:16;;;;;;;5.03;2.93;;;12.60;99.90;;;;;;5092954;28;20204;-77
2022/05/21 03:14:41;;;;;;;9.37;3.30;;;12.60;99.90;;;;;;5093351;28;20166;-77
2022/05/21 03:17:07;;;;;;;12.03;3.73;;;12.60;99.90;;;;;;5094147;28;20201;-77
2022/05/21 03:19:34;;;;;;;7.10;3.70;;;12.50;99.90;;;;;;5093532;28;20559;-77
2022/05/21 03:22:00;;;;;;;7.33;3.23;;;12.60;99.90;;;;;;5096352;28;20198;-77
2022/05/21 03:24:27;;;;;;;7.50;3.80;;;12.60;99.90;;;;;;5097800;28;20228;-77
2022/05/21 03:26:53;;;;;;;7.43;3.87;;;12.60;99.90;;;;;;5094652;28;20175;-77
2022/05/21 03:29:19;;;;;;;11.57;4.30;;;12.60;99.90;;;;;;5093088;28;20636;-76
2022/05/21 03:31:45;;;;;;;8.07;4.30;;;12.60;99.90;;;;;;5093072;28;20198;-77
2022/05/21 03:34:11;;;;;;;8.60;4.00;;;12.60;99.90;;;;;;5091577;28;20576;-76
2022/05/21 03:36:37;;;;;;;8.87;4.73;;;12.60;99.90;;;;;;5093248;28;20640;-77
2022/05/21 03:39:03;;;;;;;12.77;4.17;;;12.60;99.90;;;;;;5092834;28;20182;-77
2022/05/21 03:41:29;;;;;;;9.63;4.33;;;12.60;99.90;;;;;;5092745;28;20249;-77
2022/05/21 03:43:55;;;;;;;8.17;4.23;;;12.70;99.90;;;;;;5091781;28;20251;-78
2022/05/21 03:46:21;;;;;;;11.93;4.63;;;12.60;99.90;;;;;;5093061;28;20170;-77
2022/05/21 03:48:46;;;;;;;8.23;4.63;;;12.70;99.90;;;;;;5092824;28;20189;-77
2022/05/21 03:51:12;;;;;;;6.63;4.23;;;12.70;99.90;;;;;;5092854;28;20243;-77
2022/05/21 03:53:38;;;;;;;9.23;5.17;;;12.70;99.90;;;;;;5092536;28;20609;-76
2022/05/21 03:56:04;;;;;;;9.97;4.50;;;12.70;99.90;;;;;;5092797;28;20214;-76
2022/05/21 03:58:30;;;;;;;11.83;5.17;;;12.70;99.90;;;;;;5091895;28;20182;-77
2022/05/21 04:00:56;;;;;;;8.73;4.50;;;12.70;99.90;;;;;;5093233;28;20194;-76
2022/05/21 04:03:21;;;;;;;9.63;4.67;;;12.70;99.90;;;;;;5091474;28;20201;-76
2022/05/21 04:05:47;;;;;;;9.87;4.40;;;12.70;99.90;;;;;;5096622;28;20171;-77
2022/05/21 04:08:15;;;;;;;13.37;5.07;;;12.80;99.90;;;;;;5096529;28;20596;-77
2022/05/21 04:10:41;;;;;;;7.20;3.70;;;12.70;99.90;;;;;;5096200;28;20175;-77
2022/05/21 04:13:06;;;;;;;7.13;3.73;;;12.80;99.90;;;;;;5114668;22;20218;-76
2022/05/21 04:15:33;;;;;;;11.87;4.17;;;12.70;99.90;;;;;;5076704;28;20580;-77
2022/05/21 04:17:58;;;;;;;10.97;4.83;;;12.70;99.90;;;;;;5076398;28;20174;-77
2022/05/21 04:20:24;;;;;;;11.27;4.33;;;12.70;99.90;;;;;;5075862;28;20202;-77
2022/05/21 04:22:51;;;;;;;13.30;5.30;;;12.70;99.90;;;;;;5076119;28;20537;-77
2022/05/21 04:25:17;;;;;;;10.53;5.23;;;12.70;99.90;;;;;;5076131;28;20159;-77
2022/05/21 04:27:43;;;;;;;8.43;4.53;;;12.80;99.90;;;;;;5076129;28;20540;-76
2022/05/21 04:30:16;;;;;;;9.53;4.73;;;12.70;99.90;;;;;;5074554;28;20186;-77
2022/05/21 04:32:43;;;;;;;10.23;4.33;;;12.80;99.90;;;;;;5075834;28;20203;-77
2022/05/21 04:35:09;;;;;;;10.63;4.63;;;12.70;99.90;;;;;;5075508;28;20225;-77
2022/05/21 04:37:38;;;;;;;10.07;4.97;;;12.70;99.90;;;;;;5076209;28;20186;-77
2022/05/21 04:40:07;;;;;;;11.57;4.27;;;12.80;99.90;;;;;;5075646;28;20293;-77
2022/05/21 04:42:32;;;;;;;7.90;4.67;;;12.80;99.90;;;;;;5074519;28;20258;-77
2022/05/21 04:44:58;;;;;;;9.90;4.60;;;12.80;99.90;;;;;;5075615;28;20221;-77
2022/05/21 04:47:23;;;;;;;8.03;3.93;;;12.80;99.90;;;;;;5075502;28;20167;-77
2022/05/21 04:49:49;;;;;;;9.10;4.07;;;12.80;99.90;;;;;;5072998;28;20265;-77
2022/05/21 04:52:14;;;;;;;9.37;3.97;;;12.80;99.90;;;;;;5074016;28;20171;-76
2022/05/21 04:54:40;;;;;;;7.27;3.50;;;12.80;99.90;;;;;;5075235;28;20187;-77
2022/05/21 04:57:06;;;;;;;9.13;3.47;;;12.90;99.90;;;;;;5075193;28;20167;-76
2022/05/21 04:59:32;;;;;;;7.97;3.60;;;12.80;99.90;;;;;;5074216;28;20177;-76
2022/05/21 05:01:58;;;;;;;9.33;3.80;;;12.90;99.90;;;;;;5073841;28;20202;-77
2022/05/21 05:04:24;;;;;;;9.53;4.30;;;12.90;99.90;;;;;;5075115;28;20207;-77
2022/05/21 05:06:50;;;;;;;9.70;3.73;;;12.90;99.90;;;;;;5075056;28;20171;-77
2022/05/21 05:09:19;;;;;;;11.43;3.90;;;12.90;99.90;;;;;;5075022;28;20177;-76
2022/05/21 05:11:46;;;;;;;8.50;3.20;;;12.90;99.90;;;;;;5074919;28;20540;-77
2022/05/21 05:14:11;;;;;;;7.43;3.97;;;12.90;99.90;;;;;;5075138;28;20203;-76
2022/05/21 05:16:37;;;;;;;8.13;3.83;;;13.00;99.90;;;;;;5074131;28;20183;-76
2022/05/21 05:19:02;;;;;;;7.37;3.80;;;13.00;99.90;;;;;;5074909;28;20521;-76
2022/05/21 05:21:28;;;;;;;9.83;4.27;;;13.00;99.90;;;;;;5075076;28;20194;-77
2022/05/21 05:23:54;;;;;;;7.73;3.83;;;13.00;99.90;;;;;;5073444;28;20274;-77
2022/05/21 05:26:22;;;;;;;11.93;3.87;;;13.10;99.90;;;;;;5074746;28;20182;-77
2022/05/21 05:28:48;;;;;;;9.60;4.07;;;13.00;99.90;;;;;;5074486;28;20166;-76
2022/05/21 05:31:13;;;;;;;8.27;3.60;;;13.00;99.90;;;;;;5074648;28;20186;-77
2022/05/21 05:33:39;;;;;;;7.33;3.87;;;13.00;99.90;;;;;;5074543;28;20198;-76
2022/05/21 05:36:05;;;;;;;8.87;4.30;;;13.00;99.90;;;;;;5074356;28;20258;-76
2022/05/21 05:38:31;;;;;;;12.90;4.20;;;13.10;99.90;;;;;;5075007;28;20210;-77
2022/05/21 05:40:57;;;;;;;9.00;4.63;;;13.10;99.90;;;;;;5072809;28;20294;-76
2022/05/21 05:43:23;;;;;;;14.60;4.83;;;13.10;99.90;;;;;;5074311;28;20664;-76
2022/05/21 05:45:50;;;;;;;10.73;5.67;;;13.10;99.90;;;;;;5073853;28;20253;-76
2022/05/21 05:48:16;;;;;;;9.87;4.97;;;13.10;99.90;;;;;;5073848;28;20182;-76
2022/05/21 05:50:41;;;;;;;13.80;5.40;;;13.10;99.90;;;;;;5072559;28;20178;-75
2022/05/21 05:53:07;;;;;;;13.03;5.30;;;13.10;99.90;;;;;;5072474;28;20194;-76
2022/05/21 05:55:34;;;;;;;10.73;5.60;;;13.20;99.90;;;;;;5072639;28;20636;-76
2022/05/21 05:59:48;;;;;;;14.20;5.70;;;13.30;99.90;;;;;;5073844;28;20336;-75
2022/05/21 06:00:45;;;;;;;11.00;5.00;;;13.20;99.90;;;;;;5073319;28;20226;-76
2022/05/21 06:03:11;;;;;;;16.00;5.50;;;13.30;99.90;;;;;;5073433;28;20191;-76
2022/05/21 06:05:36;;;;;;;8.43;4.43;;;13.20;99.90;;;;;;5073586;28;20174;-76
2022/05/21 06:08:04;;;;;;;12.97;5.10;;;13.30;99.90;;;;;;5072399;28;20649;-77
2022/05/21 06:10:39;;;;;;;9.57;4.27;;;13.30;99.90;;;;;;5072283;28;20644;-76
2022/05/21 06:13:05;;;;;;;9.90;4.77;;;13.30;99.90;;;;;;5073380;28;20216;-76
2022/05/21 06:15:32;;;;;;;11.13;5.00;;;13.30;99.90;;;;;;5073594;28;20163;-76
2022/05/21 06:17:57;;;;;;;12.17;4.90;;;13.30;99.90;;;;;;5073582;28;20720;-76
2022/05/21 06:20:26;;;;;;;10.00;4.83;;;13.40;99.90;;;;;;5073568;28;20277;-76
2022/05/21 06:22:52;;;;;;;12.23;5.10;;;13.30;99.90;;;;;;5073669;28;20256;-76
2022/05/21 06:25:21;;;;;;;12.77;5.53;;;13.30;99.90;;;;;;5073296;28;20170;-76
2022/05/21 06:27:48;;;;;;;12.83;4.87;;;13.40;99.90;;;;;;5071347;28;20182;-76
2022/05/21 06:30:15;;;;;;;11.30;5.27;;;13.30;99.90;;;;;;5072176;28;20179;-77
2022/05/21 06:32:41;;;;;;;13.70;5.80;;;13.40;99.90;;;;;;5073280;28;20193;-77
2022/05/21 06:35:07;;;;;;;8.97;4.23;;;13.40;99.90;;;;;;5073449;28;20560;-76
2022/05/21 06:37:33;;;;;;;10.13;4.40;;;13.40;99.90;;;;;;5073060;28;20557;-75
2022/05/21 06:39:58;;;;;;;15.00;5.30;;;13.50;99.90;;;;;;5073437;28;20167;-77
2022/05/21 06:42:24;;;;;;;8.80;5.00;;;13.50;99.90;;;;;;5073919;28;20171;-76
2022/05/21 06:44:50;;;;;;;10.10;4.70;;;13.50;99.90;;;;;;5073714;28;20163;-77
2022/05/21 06:47:16;;;;;;;10.93;5.00;;;13.50;99.90;;;;;;5073682;28;20185;-77
2022/05/21 06:49:42;;;;;;;9.63;4.80;;;13.40;99.90;;;;;;5073492;28;20171;-77
2022/05/21 06:52:07;;;;;;;11.03;4.87;;;13.40;99.90;;;;;;5073394;28;20170;-75
2022/05/21 06:54:33;;;;;;;13.60;4.60;;;13.40;99.90;;;;;;5073089;28;20777;-75
2022/05/21 06:56:58;;;;;;;8.87;4.83;;;13.40;99.90;;;;;;5072921;28;20177;-76
2022/05/21 06:59:24;;;;;;;10.73;4.97;;;13.50;99.90;;;;;;5072857;28;20171;-76
2022/05/21 07:01:50;;;;;;;8.83;4.77;;;13.50;99.90;;;;;;5072898;28;20193;-76
2022/05/21 07:04:16;;;;;;;15.70;4.90;;;13.50;99.90;;;;;;5073052;28;20194;-76
2022/05/21 07:09:27;;;;;;;13.10;5.97;;;13.60;99.90;;;;;;5073202;28;20201;-76
2022/05/21 07:11:53;;;;;;;12.13;5.60;;;13.50;99.90;;;;;;5072813;28;20167;-76
2022/05/21 07:14:19;;;;;;;12.67;5.40;;;13.60;99.90;;;;;;5071241;28;20252;-76
2022/05/21 07:16:46;;;;;;;10.33;5.63;;;13.50;99.90;;;;;;5071549;28;20183;-76
2022/05/21 07:19:11;;;;;;;11.10;5.37;;;13.50;99.90;;;;;;5071838;28;20170;-77
2022/05/21 07:21:37;;;;;;;18.77;6.63;;;13.60;99.90;;;;;;5073173;28;20195;-76
2022/05/21 07:24:03;;;;;;;14.80;5.53;;;13.50;99.90;;;;;;5072608;28;20276;-76
2022/05/21 07:26:29;;;;;;;12.97;5.83;;;13.50;99.90;;;;;;5073553;28;20167;-76
2022/05/21 07:28:57;;;;;;;10.60;5.87;;;13.60;99.90;;;;;;5073520;28;20167;-77
2022/05/21 07:31:23;;;;;;;12.97;5.70;;;13.60;99.90;;;;;;5073565;28;20189;-77
2022/05/21 07:33:48;;;;;;;10.20;6.07;;;13.70;99.90;;;;;;5073592;28;20680;-77
2022/05/21 07:36:14;;;;;;;13.70;6.70;;;13.70;99.90;;;;;;5072719;28;20527;-77
2022/05/21 07:38:39;;;;;;;11.47;6.07;;;13.70;99.90;;;;;;5073992;28;20206;-78
2022/05/21 07:41:06;;;;;;;15.87;6.30;;;13.70;99.90;;;;;;5077840;28;20194;-78
2022/05/21 07:43:31;;;;;;;13.50;6.17;;;13.70;99.90;;;;;;5079450;28;20182;-78
2022/05/21 07:45:58;;;;;;;13.60;5.87;;;13.70;99.90;;;;;;5080305;28;20166;-78
2022/05/21 07:48:24;;;;;;;13.53;6.13;;;13.70;99.90;;;;;;5079139;28;20540;-78
2022/05/21 07:50:56;;;;;;;14.93;7.20;;;13.70;99.90;;;;;;5076103;28;20182;-76
2022/05/21 07:53:25;;;;;;;14.20;6.70;;;13.70;99.90;;;;;;5077105;28;20313;-78
2022/05/21 07:55:52;;;;;;;12.47;7.13;;;13.80;99.90;;;;;;5078140;28;20202;-78
2022/05/21 07:58:20;;;;;;;9.77;6.07;;;13.70;99.90;;;;;;5076723;28;20586;-77
2022/05/21 08:00:46;;;;;;;14.43;6.93;;;13.70;99.90;;;;;;5078006;28;20195;-78
2022/05/21 08:03:12;;;;;;;12.57;6.80;;;13.70;99.90;;;;;;5078378;28;20194;-78
2022/05/21 08:05:39;;;;;;;10.37;5.97;;;13.80;99.90;;;;;;5077011;28;20171;-77
2022/05/21 08:08:06;;;;;;;16.10;7.43;;;13.80;99.90;;;;;;5081856;28;20257;-78
2022/05/21 08:10:32;;;;;;;15.57;6.80;;;13.70;99.90;;;;;;5082101;28;20178;-77
2022/05/21 08:12:58;;;;;;;17.00;7.27;;;13.70;99.90;;;;;;5077750;28;20199;-77
2022/05/21 08:15:24;;;;;;;13.07;6.30;;;13.80;99.90;;;;;;5080620;28;20516;-78
2022/05/21 08:17:49;;;;;;;19.03;6.97;;;13.90;99.90;;;;;;5078907;28;20520;-78
2022/05/21 08:20:16;;;;;;;20.63;7.30;;;14.00;99.90;;;;;;5081977;28;20198;-79
2022/05/21 08:28:15;;;;;;;13.67;6.93;;;14.10;99.90;;;;;;5082143;28;20235;-79
2022/05/21 08:30:46;;;;;;;14.50;7.40;;;14.10;99.90;;;;;;5080852;28;20174;-78
2022/05/21 08:33:12;;;;;;;16.07;7.83;;;14.20;99.90;;;;;;5084538;28;20285;-78
2022/05/21 08:35:39;;;;;;;17.27;7.70;;;14.10;99.90;;;;;;5078815;28;20175;-77
2022/05/21 08:38:06;;;;;;;16.00;6.77;;;14.10;99.90;;;;;;5077072;28;20182;-76
2022/05/21 08:40:43;;;;;;;19.33;6.70;;;14.20;99.90;;;;;;5076456;28;20239;-76
2022/05/21 08:43:22;;;;;;;14.73;7.83;;;14.20;99.90;;;;;;5078106;28;20588;-77
2022/05/21 08:46:19;;;;;;;21.77;7.93;;;14.30;99.90;;;;;;5079537;28;20152;-78
2022/05/21 08:48:53;;;;;;;13.33;6.90;;;14.30;99.90;;;;;;5078712;28;20183;-78
2022/05/21 08:51:21;;;;;;;18.63;7.93;;;14.40;99.90;;;;;;5078900;28;20617;-79
2022/05/21 08:53:50;;;;;;;16.47;7.53;;;14.60;99.90;;;;;;5078441;28;20205;-78
2022/05/21 08:56:17;;;;;;;15.33;7.23;;;14.80;93.90;;;;;;5078710;28;20175;-78
2022/05/21 08:58:46;;;;;;;16.70;6.97;;;14.90;1.00;;;;;;5079642;28;20178;-79
2022/05/21 09:01:16;;;;;;;17.43;6.97;;;15.00;1.00;;;;;;5077887;28;20214;-78
2022/05/21 09:03:42;;;;;;;15.73;7.30;;;15.10;1.00;;;;;;5079116;28;20187;-79
2022/05/21 09:06:37;;;;;;;13.93;6.80;;;15.30;99.90;;;;;;5078805;28;20167;-79
2022/05/21 09:09:12;;;;;;;13.03;6.20;;;15.40;1.00;;;;;;5063680;28;20210;-79
2022/05/21 09:11:46;;;;;;;15.67;7.00;;;15.40;99.90;;;;;;5079305;28;20184;-79
2022/05/21 09:14:42;;;;;;;11.53;5.90;;;15.40;99.90;;;;;;5077927;28;20718;-80
2022/05/21 09:17:15;;;;;;;12.17;6.17;;;15.30;99.90;;;;;;5079664;28;20179;-80
2022/05/21 09:19:47;;;;;;;10.73;5.47;;;15.30;99.90;;;;;;5080311;28;20163;-79
2022/05/21 09:22:16;;;;;;;13.43;6.10;;;15.40;99.90;;;;;;5077232;28;20574;-79
2022/05/21 09:24:45;;;;;;;16.93;5.87;;;15.40;99.90;;;;;;5079146;28;20237;-79
2022/05/21 09:27:39;;;;;;;11.87;5.70;;;15.40;43.50;;;;;;5081688;28;20163;-79
2022/05/21 09:30:29;;;;;;;13.67;5.50;;;15.40;1.00;;;;;;5094276;28;20170;-80
2022/05/21 09:32:57;;;;;;;14.27;5.67;;;15.50;1.00;;;;;;5100057;28;20187;-79
2022/05/21 09:35:48;;;;;;;14.50;5.67;;;15.40;1.00;;;;;;5099705;28;20179;-78
2022/05/21 09:38:19;;;;;;;16.40;5.60;;;15.50;99.90;;;;;;5099236;28;20170;-80
2022/05/21 09:40:44;;;;;;;17.63;5.67;;;15.50;99.90;;;;;;5095557;28;20209;-78
2022/05/21 09:46:19;;;;;;;10.30;5.33;;;15.40;1.00;;;;;;5089725;28;20227;-78
2022/05/21 09:48:46;;;;;;;13.27;5.83;;;15.30;1.00;;;;;;5081455;28;20178;-79
2022/05/21 09:51:41;;;;;;;15.70;5.33;;;15.30;20.00;;;;;;5082588;28;20199;-78
2022/05/21 09:54:21;;;;;;;10.33;5.33;;;15.40;99.90;;;;;;5075378;28;20217;-79
2022/05/21 09:56:49;;;;;;;11.07;5.63;;;15.60;1.00;;;;;;5082027;28;20182;-79
2022/05/21 09:59:19;;;;;;;15.97;6.00;;;15.80;1.00;;;;;;5080668;28;20190;-79
2022/05/21 10:01:53;;;;;;;13.63;5.70;;;16.00;1.00;;;;;;5080031;28;20281;-78
2022/05/21 10:04:46;;;;;;;10.00;5.37;;;16.00;1.00;;;;;;5079340;28;20299;-79
2022/05/21 10:13:29;;;;;;;11.17;5.40;;;16.50;99.90;;;;;;5099482;22;20250;-93
2022/05/21 10:16:25;;;;;;;10.80;4.20;;;16.60;99.90;;;;;;5108221;28;20167;-93
2022/05/21 10:19:12;;;;;;;14.17;4.87;;;16.70;1.00;;;;;;5079304;28;20190;-92
2022/05/21 10:21:47;;;;;;;13.70;4.90;;;16.50;99.90;;;;;;5102473;28;20204;-92
2022/05/21 10:24:39;;;;;;;12.47;4.90;;;16.60;55.70;;;;;;5184878;22;20283;-79
2022/05/21 10:27:20;;;;;;;13.40;5.40;;;16.80;99.90;;;;;;5078002;28;20155;-79
2022/05/21 10:30:09;;;;;;;14.33;5.37;;;17.00;99.90;;;;;;5078731;28;20252;-79
2022/05/21 10:33:10;;;;;;;15.73;4.50;;;17.10;1.00;;;;;;5077796;28;20561;-79
2022/05/21 10:35:38;;;;;;;13.07;5.20;;;17.40;1.00;;;;;;5054768;28;20187;-79
2022/05/21 10:38:31;;;;;;;11.07;4.37;;;17.40;99.90;;;;;;5054342;28;20174;-79
2022/05/21 10:41:06;;;;;;;9.00;4.07;;;17.40;93.20;;;;;;5055105;28;20693;-78
2022/05/21 10:43:42;;;;;;;9.07;4.23;;;17.40;99.90;;;;;;5055188;28;20202;-77
2022/05/21 10:46:36;;;;;;;11.10;4.43;;;17.50;99.90;;;;;;5052932;28;20159;-77
2022/05/21 10:49:32;;;;;;;14.80;4.60;;;17.70;99.90;;;;;;5044924;28;20206;-77
2022/05/21 10:52:52;;;;;;;8.73;3.97;;;17.50;99.90;;;;;;5054088;28;20218;-78
2022/05/21 10:55:55;;;;;;;8.83;4.27;;;17.70;1.00;;;;;;5031967;28;20294;-78
2022/05/21 10:58:42;;;;;;;10.93;4.83;;;17.90;40.00;;;;;;5055417;28;20271;-77
2022/05/21 11:01:29;;;;;;;9.93;4.27;;;17.70;1.00;;;;;;5056553;28;20249;-78
2022/05/21 11:04:18;;;;;;;10.07;3.90;;;17.70;99.90;;;;;;5057243;28;20187;-78
2022/05/21 11:07:01;;;;;;;10.50;3.93;;;17.70;32.20;;;;;;5054142;28;20286;-77
2022/05/21 11:09:54;;;;;;;12.03;4.50;;;17.80;99.90;;;;;;5056003;28;20160;-77
2022/05/21 11:12:30;;;;;;;12.80;4.23;;;18.00;99.90;;;;;;5057746;28;20167;-77
2022/05/21 11:15:08;;;;;;;7.80;4.03;;;18.10;55.10;;;;;;5057925;28;20187;-78
2022/05/21 11:17:59;;;;;;;8.83;3.77;;;18.20;1.00;;;;;;5057711;28;20186;-78
2022/05/21 11:20:32;;;;;;;7.00;3.77;;;18.10;1.00;;;;;;5056274;28;20203;-78
2022/05/21 11:23:04;;;;;;;11.43;4.23;;;18.20;99.90;;;;;;5057508;28;20160;-78
2022/05/21 11:25:55;;;;;;;12.53;4.03;;;18.30;99.90;;;;;;5057056;28;20176;-77
2022/05/21 11:28:34;;;;;;;9.50;3.60;;;18.10;99.90;;;;;;5058184;28;20156;-79
2022/05/21 11:31:07;;;;;;;12.83;4.37;;;18.30;90.10;;;;;;5056503;28;20172;-78
2022/05/21 11:39:10;;;;;;;9.17;3.93;;;18.30;99.90;;;;;;5057942;28;20166;-78
2022/05/21 11:41:54;;;;;;;9.37;3.27;;;18.30;1.00;;;;;;5057311;28;20241;-78
2022/05/21 11:47:12;;;;;;;11.80;3.40;;;18.40;1.00;;;;;;5058471;28;20163;-77
2022/05/21 11:49:37;;;;;;;9.67;4.23;;;18.50;1.00;;;;;;5057689;28;20644;-78
2022/05/21 11:52:28;;;;;;;8.67;4.03;;;18.30;1.00;;;;;;5056139;28;20175;-78
2022/05/21 11:54:53;;;;;;;10.90;4.10;;;18.20;1.00;;;;;;5057253;28;20191;-77
2022/05/21 11:57:36;;;;;;;9.57;3.67;;;18.10;1.00;;;;;;5056954;28;20241;-78
2022/05/21 12:00:29;;;;;;;8.93;3.93;;;18.10;99.90;;;;;;5057243;28;20167;-79
2022/05/21 12:02:55;;;;;;;9.97;3.83;;;18.10;99.90;;;;;;5057631;28;20646;-79
2022/05/21 12:05:40;;;;;;;9.40;3.83;;;18.00;1.00;;;;;;5057519;28;20197;-76
2022/05/21 12:08:14;;;;;;;13.03;3.90;;;17.90;99.90;;;;;;5058944;28;20148;-79
2022/05/21 12:10:55;;;;;;;6.47;3.40;;;17.80;1.00;;;;;;5057602;28;20182;-79
2022/05/21 12:13:33;;;;;;;8.60;3.70;;;17.70;1.00;;;;;;5056933;28;20187;-78
2022/05/21 12:16:20;;;;;;;8.93;3.50;;;17.70;99.90;;;;;;5057118;28;20183;-78
2022/05/21 12:18:46;;;;;;;9.50;4.10;;;17.70;1.00;;;;;;5058193;28;20160;-79
2022/05/21 12:21:35;;;;;;;8.40;4.03;;;17.70;99.90;;;;;;5056675;28;20241;-78
2022/05/21 12:24:29;;;;;;;7.77;3.50;;;17.80;93.30;;;;;;5056086;28;20199;-78
2022/05/21 12:27:05;;;;;;;11.23;4.13;;;17.90;99.90;;;;;;5056829;28;20183;-78
2022/05/21 12:29:39;;;;;;;12.67;3.93;;;18.00;99.90;;;;;;5055803;28;20167;-78
2022/05/21 12:32:05;;;;;;;8.50;3.60;;;18.00;99.90;;;;;;5056712;28;20185;-77
2022/05/21 12:34:54;;;;;;;5.00;3.03;;;18.00;1.00;;;;;;5055684;28;20200;-75
2022/05/21 12:37:30;;;;;;;10.50;3.50;;;18.20;1.00;;;;;;5055551;28;20168;-77
2022/05/21 12:40:01;;;;;;;10.33;3.70;;;18.50;1.00;;;;;;5055481;28;20154;-77
2022/05/21 12:42:36;;;;;;;7.27;3.50;;;18.70;1.00;;;;;;5056117;28;20533;-76
2022/05/21 12:45:03;;;;;;;9.13;3.20;;;18.70;99.90;;;;;;5055468;28;20202;-79
2022/05/21 12:47:33;;;;;;;8.20;3.33;;;18.70;13.90;;;;;;5054536;28;20167;-76
2022/05/21 12:50:01;;;;;;;15.87;3.70;;;18.60;99.90;;;;;;5055018;28;20243;-77
2022/05/21 12:52:49;;;;;;;11.57;4.20;;;18.70;1.00;;;;;;5055272;28;20167;-77
2022/05/21 12:55:25;;;;;;;11.40;3.43;;;18.60;1.00;;;;;;5055138;28;20184;-78
2022/05/21 12:57:53;;;;;;;9.00;3.23;;;18.60;1.00;;;;;;5053995;28;20168;-77
2022/05/21 13:00:22;;;;;;;9.30;3.73;;;18.50;1.00;;;;;;5055672;28;20171;-77
2022/05/21 13:02:51;;;;;;;10.10;3.27;;;18.50;81.90;;;;;;5055602;28;20218;-77
2022/05/21 13:05:25;;;;;;;7.47;2.87;;;18.50;1.00;;;;;;5055317;28;20692;-77
2022/05/21 13:07:53;;;;;;;7.73;3.03;;;18.40;99.90;;;;;;5055354;28;20156;-77
2022/05/21 13:10:31;;;;;;;10.40;3.60;;;18.30;1.00;;;;;;5054213;28;20167;-78
2022/05/21 13:13:07;;;;;;;7.47;2.83;;;18.20;1.00;;;;;;5058203;28;20171;-77
2022/05/21 13:15:37;;;;;;;5.83;2.67;;;18.20;99.90;;;;;;5055348;28;20167;-76
2022/05/21 13:18:24;;;;;;;8.73;3.67;;;18.10;1.00;;;;;;5055724;28;20528;-77
2022/05/21 13:21:10;;;;;;;12.10;3.60;;;18.00;1.00;;;;;;5053968;28;20241;-77
2022/05/21 13:23:51;;;;;;;9.37;3.50;;;18.00;1.00;;;;;;5054794;28;20226;-77
2022/05/21 13:26:23;;;;;;;8.00;3.30;;;18.00;99.90;;;;;;5054440;28;20652;-76
2022/05/21 13:28:49;;;;;;;6.10;3.33;;;18.00;1.00;;;;;;5054530;28;20156;-76
2022/05/21 13:31:20;;;;;;;12.77;4.20;;;18.10;1.00;;;;;;5054408;28;20182;-76
2022/05/21 13:33:51;;;;;;;10.93;3.20;;;18.20;99.90;;;;;;5055059;28;20195;-77
2022/05/21 13:36:21;;;;;;;8.60;4.03;;;18.40;1.00;;;;;;5055060;28;20164;-76
2022/05/21 13:38:52;;;;;;;9.27;3.47;;;18.60;1.00;;;;;;5055410;28;20553;-76
2022/05/21 13:41:33;;;;;;;8.33;3.13;;;18.80;99.90;;;;;;5055224;28;20183;-78